Time;durP1;ratioP1;P1;durP2;ratioP2;P2;SDS_P1;SDS_P2;PMS_P1;PMS_P2;Temp;Humidity;BMP_temperature;BMP_pressure;BME280_temperature;BME280_humidity;BME280_pressure;Samples;Min_cycle;Max_cycle;Signal;HPM_P1;HPM_P2
2023/09/17 00:00:04;;;;;;;5.00;4.60;;;17.80;99.90;;;;;;4972100;28;20471;-64
2023/09/17 00:02:31;;;;;;;4.37;4.07;;;17.80;99.90;;;;;;4971674;28;20462;-64
2023/09/17 00:04:58;;;;;;;4.80;4.40;;;17.80;99.90;;;;;;4972358;28;20490;-64
2023/09/17 00:07:25;;;;;;;4.57;4.27;;;17.80;99.90;;;;;;4971397;28;20454;-64
2023/09/17 00:09:52;;;;;;;4.57;4.20;;;17.80;99.90;;;;;;4971822;28;20558;-64
2023/09/17 00:12:19;;;;;;;4.20;3.90;;;17.90;99.90;;;;;;4971984;28;20480;-64
2023/09/17 00:14:47;;;;;;;5.33;4.90;;;17.90;99.90;;;;;;4972275;28;20454;-64
2023/09/17 00:17:14;;;;;;;4.47;4.17;;;17.90;99.90;;;;;;4972211;28;20451;-64
2023/09/17 00:19:41;;;;;;;5.37;4.97;;;17.90;99.90;;;;;;4972510;28;20472;-65
2023/09/17 00:22:09;;;;;;;5.10;4.70;;;17.90;99.90;;;;;;4972473;28;20456;-65
2023/09/17 00:24:36;;;;;;;5.60;4.00;;;17.90;99.90;;;;;;4972404;28;20516;-65
2023/09/17 00:27:03;;;;;;;4.83;4.43;;;17.90;99.90;;;;;;4972472;28;20551;-65
2023/09/17 00:29:29;;;;;;;5.83;5.37;;;17.90;99.90;;;;;;4972274;28;21003;-65
2023/09/17 00:31:58;;;;;;;5.30;5.00;;;17.90;99.90;;;;;;4972600;28;20447;-65
2023/09/17 00:34:24;;;;;;;5.27;4.77;;;17.90;99.90;;;;;;4972199;28;20577;-65
2023/09/17 00:36:51;;;;;;;5.03;4.63;;;17.80;99.90;;;;;;4972387;28;20447;-65
2023/09/17 00:39:19;;;;;;;5.70;5.10;;;17.90;99.90;;;;;;4972153;28;20487;-65
2023/09/17 00:41:46;;;;;;;5.10;4.60;;;17.80;99.90;;;;;;4972274;28;20447;-65
2023/09/17 00:44:12;;;;;;;4.77;4.47;;;17.80;99.90;;;;;;4971508;28;20491;-65
2023/09/17 00:46:39;;;;;;;9.60;5.57;;;17.80;99.90;;;;;;4972192;28;20451;-65
2023/09/17 00:49:12;;;;;;;4.83;4.40;;;17.80;99.90;;;;;;4971991;28;20947;-65
2023/09/17 00:51:39;;;;;;;4.90;4.60;;;17.70;99.90;;;;;;4971560;28;21021;-65
2023/09/17 00:54:07;;;;;;;5.37;4.83;;;17.70;99.90;;;;;;4971646;28;20455;-65
2023/09/17 00:56:34;;;;;;;5.00;4.70;;;17.70;99.90;;;;;;4972125;28;20471;-65
2023/09/17 00:59:01;;;;;;;5.17;4.77;;;17.70;99.90;;;;;;4971853;28;20559;-65
2023/09/17 01:01:28;;;;;;;5.40;5.00;;;17.70;99.90;;;;;;4971945;28;20460;-65
2023/09/17 01:03:55;;;;;;;5.47;5.07;;;17.60;99.90;;;;;;4971583;28;20494;-65
2023/09/17 01:06:23;;;;;;;7.37;5.07;;;17.60;99.90;;;;;;4971472;28;20482;-65
2023/09/17 01:08:51;;;;;;;5.13;4.63;;;17.60;99.90;;;;;;4972132;28;20443;-65
2023/09/17 01:11:19;;;;;;;5.60;5.13;;;17.60;99.90;;;;;;4971918;28;20916;-65
2023/09/17 01:13:51;;;;;;;5.10;4.70;;;17.60;99.90;;;;;;4971769;28;20537;-65
2023/09/17 01:16:18;;;;;;;5.40;4.90;;;17.50;99.90;;;;;;4972333;28;20505;-65
2023/09/17 01:18:45;;;;;;;5.20;4.80;;;17.50;99.90;;;;;;4972573;28;20461;-65
2023/09/17 01:21:18;;;;;;;5.40;4.97;;;17.50;99.90;;;;;;4975280;28;20593;-65
2023/09/17 01:23:53;;;;;;;5.10;4.70;;;17.50;99.90;;;;;;4974748;28;20455;-65
2023/09/17 01:26:26;;;;;;;5.40;5.00;;;17.40;99.90;;;;;;4975416;28;20450;-65
2023/09/17 01:28:54;;;;;;;5.47;4.97;;;17.40;99.90;;;;;;4975298;28;20512;-65
2023/09/17 01:31:21;;;;;;;4.97;4.67;;;17.40;99.90;;;;;;4975200;28;20471;-65
2023/09/17 01:33:49;;;;;;;5.20;4.80;;;17.40;99.90;;;;;;4975117;28;20838;-65
2023/09/17 01:36:20;;;;;;;5.97;5.57;;;17.40;99.90;;;;;;4975100;28;20459;-65
2023/09/17 01:38:51;;;;;;;6.10;5.60;;;17.30;99.90;;;;;;4975313;28;20462;-65
2023/09/17 01:41:19;;;;;;;5.30;4.90;;;17.30;99.90;;;;;;4975007;28;20482;-65
2023/09/17 01:43:46;;;;;;;5.00;4.70;;;17.30;99.90;;;;;;4974710;28;20450;-65
2023/09/17 01:46:16;;;;;;;5.57;5.13;;;17.30;99.90;;;;;;4975130;28;20525;-65
2023/09/17 01:48:44;;;;;;;4.90;4.60;;;17.30;99.90;;;;;;4974787;28;20454;-65
2023/09/17 01:51:12;;;;;;;6.90;5.67;;;17.30;99.90;;;;;;4974680;28;20466;-65
2023/09/17 01:53:39;;;;;;;5.80;5.30;;;17.30;99.90;;;;;;4974426;28;20530;-65
2023/09/17 01:56:06;;;;;;;5.73;5.23;;;17.30;99.90;;;;;;4974331;28;20536;-65
2023/09/17 01:58:33;;;;;;;5.00;4.60;;;17.30;99.90;;;;;;4974456;28;20486;-65
2023/09/17 02:01:00;;;;;;;6.10;5.53;;;17.40;99.90;;;;;;4974478;28;20474;-65
2023/09/17 02:03:30;;;;;;;6.03;5.50;;;17.30;99.90;;;;;;4974228;28;20546;-65
2023/09/17 02:05:58;;;;;;;5.77;5.27;;;17.30;99.90;;;;;;4974350;28;21052;-65
2023/09/17 02:08:25;;;;;;;5.73;5.33;;;17.40;99.90;;;;;;4974288;28;20514;-65
2023/09/17 02:10:52;;;;;;;4.60;4.30;;;17.40;99.90;;;;;;4974495;28;20563;-65
2023/09/17 02:13:19;;;;;;;4.97;4.60;;;17.40;99.90;;;;;;4974233;28;20525;-65
2023/09/17 02:15:45;;;;;;;5.50;5.00;;;17.40;99.90;;;;;;4974238;28;20837;-65
2023/09/17 02:18:12;;;;;;;5.30;4.80;;;17.40;99.90;;;;;;4974502;28;20454;-65
2023/09/17 02:20:42;;;;;;;5.50;5.00;;;17.40;99.90;;;;;;4974326;28;20467;-65
2023/09/17 02:23:10;;;;;;;4.97;4.60;;;17.40;99.90;;;;;;4974280;28;20477;-65
2023/09/17 02:25:37;;;;;;;5.03;4.73;;;17.40;99.90;;;;;;4974057;28;20537;-65
2023/09/17 02:28:04;;;;;;;5.80;5.30;;;17.30;99.90;;;;;;4974264;28;20448;-65
2023/09/17 02:30:31;;;;;;;6.50;5.33;;;17.30;99.90;;;;;;4973711;28;20475;-65
2023/09/17 02:32:58;;;;;;;5.00;4.60;;;17.30;99.90;;;;;;4973741;28;20450;-65
2023/09/17 02:35:25;;;;;;;5.40;5.00;;;17.30;99.90;;;;;;4979967;28;20442;-65
2023/09/17 02:37:53;;;;;;;5.37;4.90;;;17.30;99.90;;;;;;4992873;28;20842;-65
2023/09/17 02:40:20;;;;;;;6.03;5.43;;;17.30;99.90;;;;;;4993091;28;20481;-65
2023/09/17 02:42:46;;;;;;;6.57;5.90;;;17.30;99.90;;;;;;4992816;28;20458;-65
2023/09/17 02:45:13;;;;;;;6.53;6.00;;;17.30;99.90;;;;;;4993724;28;20837;-65
2023/09/17 02:47:41;;;;;;;5.07;4.67;;;17.30;99.90;;;;;;4993645;28;20480;-65
2023/09/17 02:50:09;;;;;;;5.43;5.03;;;17.30;99.90;;;;;;4993444;28;20560;-65
2023/09/17 02:52:36;;;;;;;5.43;5.13;;;17.30;99.90;;;;;;4993103;28;20453;-65
2023/09/17 02:55:05;;;;;;;6.20;5.73;;;17.40;99.90;;;;;;4993235;28;20446;-65
2023/09/17 02:57:32;;;;;;;5.57;5.17;;;17.40;99.90;;;;;;4993117;28;20449;-65
2023/09/17 02:59:59;;;;;;;6.60;6.00;;;17.40;99.90;;;;;;4992547;28;20557;-65
2023/09/17 03:02:26;;;;;;;5.83;5.43;;;17.40;99.90;;;;;;4992729;28;20508;-65
2023/09/17 03:04:56;;;;;;;7.90;5.70;;;17.40;99.90;;;;;;4992720;28;20487;-65
2023/09/17 03:07:24;;;;;;;6.23;5.73;;;17.40;99.90;;;;;;4992751;28;20881;-65
2023/09/17 03:09:51;;;;;;;6.03;5.50;;;17.40;99.90;;;;;;4992246;28;20474;-65
2023/09/17 03:12:19;;;;;;;5.90;5.40;;;17.50;99.90;;;;;;4992330;28;20473;-65
2023/09/17 03:14:46;;;;;;;5.23;4.87;;;17.40;99.90;;;;;;4992716;28;20477;-65
2023/09/17 03:17:13;;;;;;;5.77;5.27;;;17.50;99.90;;;;;;4992557;28;20843;-65
2023/09/17 03:19:42;;;;;;;5.87;5.37;;;17.40;99.90;;;;;;4991466;28;20522;-65
2023/09/17 03:22:09;;;;;;;6.43;5.93;;;17.50;99.90;;;;;;4992681;28;20466;-65
2023/09/17 03:24:37;;;;;;;5.03;4.63;;;17.50;99.90;;;;;;4992435;28;20453;-65
2023/09/17 03:27:04;;;;;;;6.27;5.37;;;17.50;99.90;;;;;;4992245;28;20542;-65
2023/09/17 03:29:33;;;;;;;6.93;6.00;;;17.50;99.90;;;;;;4992319;28;20485;-65
2023/09/17 03:32:00;;;;;;;5.73;5.33;;;17.50;99.90;;;;;;4992300;28;20473;-65
2023/09/17 03:34:27;;;;;;;5.50;5.07;;;17.50;99.90;;;;;;4992394;28;20476;-65
2023/09/17 03:36:53;;;;;;;5.77;5.37;;;17.50;99.90;;;;;;4992412;28;20451;-65
2023/09/17 03:39:21;;;;;;;5.90;5.40;;;17.60;99.90;;;;;;4992155;28;20485;-65
2023/09/17 03:41:48;;;;;;;6.17;5.67;;;17.50;99.90;;;;;;4991540;28;20453;-65
2023/09/17 03:44:14;;;;;;;5.47;5.17;;;17.50;99.90;;;;;;4991942;28;20454;-65
2023/09/17 03:46:43;;;;;;;5.53;5.23;;;17.50;99.90;;;;;;4991879;28;20490;-65
2023/09/17 03:49:10;;;;;;;5.33;4.93;;;17.50;99.90;;;;;;4992370;28;20449;-65
2023/09/17 03:51:36;;;;;;;5.10;4.80;;;17.50;99.90;;;;;;4992345;28;20489;-65
2023/09/17 03:54:04;;;;;;;5.60;5.20;;;17.50;99.90;;;;;;4991888;28;20454;-65
2023/09/17 03:56:31;;;;;;;5.23;4.83;;;17.50;99.90;;;;;;4992177;28;20455;-65
2023/09/17 03:58:57;;;;;;;6.13;5.63;;;17.50;99.90;;;;;;4992120;28;20541;-65
2023/09/17 04:01:24;;;;;;;5.43;5.03;;;17.40;99.90;;;;;;4992620;28;20454;-65
2023/09/17 04:03:53;;;;;;;6.10;5.60;;;17.40;99.90;;;;;;4991795;28;20457;-65
2023/09/17 04:06:20;;;;;;;6.30;5.70;;;17.40;99.90;;;;;;4991417;28;20501;-65
2023/09/17 04:08:47;;;;;;;6.23;5.83;;;17.40;99.90;;;;;;4991841;28;20454;-65
2023/09/17 04:11:15;;;;;;;5.87;5.37;;;17.40;99.90;;;;;;4991765;28;20476;-65
2023/09/17 04:13:43;;;;;;;4.80;4.50;;;17.30;99.90;;;;;;4991407;28;20960;-65
2023/09/17 04:16:12;;;;;;;5.00;4.67;;;17.30;99.90;;;;;;4992146;28;20540;-65
2023/09/17 04:18:39;;;;;;;6.07;5.67;;;17.30;99.90;;;;;;4991904;28;20465;-65
2023/09/17 04:21:07;;;;;;;5.63;5.20;;;17.20;99.90;;;;;;4991759;28;20561;-65
2023/09/17 04:23:34;;;;;;;5.90;5.50;;;17.20;99.90;;;;;;4991442;28;20456;-65
2023/09/17 04:26:01;;;;;;;7.17;6.57;;;17.20;99.90;;;;;;4991555;28;20532;-65
2023/09/17 04:28:27;;;;;;;6.47;5.87;;;17.10;99.90;;;;;;4991247;28;21010;-65
2023/09/17 04:30:54;;;;;;;4.83;4.50;;;17.10;99.90;;;;;;4991854;28;20481;-65
2023/09/17 04:33:21;;;;;;;5.73;5.23;;;17.10;99.90;;;;;;4991395;28;20455;-65
2023/09/17 04:35:48;;;;;;;5.70;5.30;;;17.00;99.90;;;;;;4991445;28;20979;-65
2023/09/17 04:38:16;;;;;;;6.47;6.00;;;17.00;99.90;;;;;;4991798;28;20461;-65
2023/09/17 04:40:43;;;;;;;5.70;5.20;;;17.00;99.90;;;;;;4991213;28;20864;-65
2023/09/17 04:43:10;;;;;;;6.07;5.60;;;16.90;99.90;;;;;;4991621;28;20454;-65
2023/09/17 04:45:39;;;;;;;6.40;5.90;;;16.90;99.90;;;;;;4991383;28;20568;-65
2023/09/17 04:48:08;;;;;;;5.20;4.90;;;16.90;99.90;;;;;;4991778;28;20453;-65
2023/09/17 04:50:35;;;;;;;7.27;6.67;;;16.80;99.90;;;;;;4991388;28;20476;-65
2023/09/17 04:53:03;;;;;;;6.40;5.90;;;16.80;99.90;;;;;;4992793;28;20489;-65
2023/09/17 04:55:32;;;;;;;6.60;5.70;;;16.80;99.90;;;;;;4995272;28;20456;-64
2023/09/17 04:57:59;;;;;;;6.20;5.70;;;16.80;99.90;;;;;;4995410;28;20458;-65
2023/09/17 05:00:26;;;;;;;8.07;6.63;;;16.70;99.90;;;;;;4994816;28;21176;-65
2023/09/17 05:02:53;;;;;;;6.43;5.93;;;16.70;99.90;;;;;;4994772;28;20453;-65
2023/09/17 05:05:20;;;;;;;6.93;6.17;;;16.60;99.90;;;;;;4995021;28;20501;-65
2023/09/17 05:07:48;;;;;;;6.17;5.77;;;16.60;99.90;;;;;;4993951;28;20449;-65
2023/09/17 05:10:15;;;;;;;5.87;5.47;;;16.60;99.90;;;;;;4994520;28;20478;-65
2023/09/17 05:12:44;;;;;;;6.20;5.70;;;16.60;99.90;;;;;;4994874;28;20459;-65
2023/09/17 05:15:12;;;;;;;6.33;5.83;;;16.50;99.90;;;;;;4994907;28;20458;-65
2023/09/17 05:17:39;;;;;;;6.27;5.87;;;16.50;99.90;;;;;;4994669;28;20978;-65
2023/09/17 05:20:07;;;;;;;6.80;6.30;;;16.50;99.90;;;;;;4994767;28;20818;-64
2023/09/17 05:22:34;;;;;;;7.13;5.50;;;16.40;99.90;;;;;;4993775;28;20454;-65
2023/09/17 05:25:02;;;;;;;8.13;7.43;;;16.40;99.90;;;;;;4975960;28;20446;-65
2023/09/17 05:27:29;;;;;;;6.37;5.87;;;16.40;99.90;;;;;;4988546;28;20451;-65
2023/09/17 05:29:57;;;;;;;6.40;5.80;;;16.40;99.90;;;;;;4992820;28;20864;-65
2023/09/17 05:32:24;;;;;;;6.57;6.00;;;16.30;99.90;;;;;;4991956;28;20496;-65
2023/09/17 05:34:51;;;;;;;7.97;6.13;;;16.30;99.90;;;;;;4994432;28;20858;-64
2023/09/17 05:37:17;;;;;;;7.90;7.30;;;16.30;99.90;;;;;;4994755;28;20441;-65
2023/09/17 05:39:44;;;;;;;5.97;5.47;;;16.30;99.90;;;;;;4994391;28;20572;-65
2023/09/17 05:42:11;;;;;;;6.10;5.70;;;16.30;99.90;;;;;;4993872;28;20490;-65
2023/09/17 05:44:38;;;;;;;5.60;5.20;;;16.30;99.90;;;;;;4994013;28;20454;-65
2023/09/17 05:47:07;;;;;;;6.23;5.83;;;16.30;99.90;;;;;;4994076;28;20490;-65
2023/09/17 05:49:33;;;;;;;6.33;5.87;;;16.30;99.90;;;;;;4993714;28;20998;-65
2023/09/17 05:52:00;;;;;;;6.47;5.97;;;16.30;99.90;;;;;;4994081;28;20496;-65
2023/09/17 05:54:27;;;;;;;6.70;6.20;;;16.30;99.90;;;;;;4993636;28;20454;-65
2023/09/17 05:56:54;;;;;;;7.07;6.53;;;16.30;99.90;;;;;;4993774;28;20519;-65
2023/09/17 05:59:21;;;;;;;6.00;5.40;;;16.30;99.90;;;;;;4993770;28;20465;-65
2023/09/17 06:01:48;;;;;;;6.13;5.57;;;16.30;99.90;;;;;;4993743;28;20472;-65
2023/09/17 06:04:16;;;;;;;6.83;6.23;;;16.30;99.90;;;;;;4992840;28;21128;-65
2023/09/17 06:06:43;;;;;;;6.10;5.60;;;16.30;99.90;;;;;;4993937;28;21018;-65
2023/09/17 06:09:10;;;;;;;7.77;7.17;;;16.30;99.90;;;;;;4994022;28;20456;-65
2023/09/17 06:11:36;;;;;;;6.73;5.53;;;16.30;99.90;;;;;;4993939;28;20530;-65
2023/09/17 06:14:03;;;;;;;6.40;5.80;;;16.40;99.90;;;;;;4993402;28;20464;-65
2023/09/17 06:16:30;;;;;;;7.70;6.97;;;16.40;99.90;;;;;;4993655;28;20446;-65
2023/09/17 06:18:57;;;;;;;6.77;5.70;;;16.40;99.90;;;;;;4993486;28;20448;-65
2023/09/17 06:21:26;;;;;;;5.90;5.40;;;16.40;99.90;;;;;;4993487;28;20967;-64
2023/09/17 06:23:53;;;;;;;6.80;6.20;;;16.40;99.90;;;;;;4993174;28;20456;-65
2023/09/17 06:26:20;;;;;;;7.23;6.73;;;16.50;99.90;;;;;;4993557;28;20489;-65
2023/09/17 06:28:46;;;;;;;5.70;5.30;;;16.50;99.90;;;;;;4993564;28;20535;-65
2023/09/17 06:31:13;;;;;;;6.23;5.73;;;16.50;99.90;;;;;;4993210;28;20472;-65
2023/09/17 06:33:40;;;;;;;6.40;5.93;;;16.50;99.90;;;;;;4993289;28;20453;-65
2023/09/17 06:36:07;;;;;;;6.03;5.53;;;16.50;99.90;;;;;;4993161;28;20447;-65
2023/09/17 06:38:35;;;;;;;6.80;6.30;;;16.60;99.90;;;;;;4993044;28;20545;-64
2023/09/17 06:41:02;;;;;;;10.20;6.37;;;16.60;99.90;;;;;;4992690;28;20508;-64
2023/09/17 06:43:30;;;;;;;5.87;5.47;;;16.60;99.90;;;;;;4992565;28;20449;-64
2023/09/17 06:45:58;;;;;;;7.10;6.57;;;16.60;99.90;;;;;;5014586;22;20456;-64
2023/09/17 06:48:25;;;;;;;7.00;6.30;;;16.70;99.90;;;;;;4973273;28;20451;-64
2023/09/17 06:50:52;;;;;;;5.77;5.30;;;16.70;99.90;;;;;;4973208;28;20459;-65
2023/09/17 06:53:19;;;;;;;6.23;5.77;;;16.70;99.90;;;;;;4972721;28;20537;-65
2023/09/17 06:55:47;;;;;;;6.17;5.67;;;16.80;99.90;;;;;;4973587;28;20449;-65
2023/09/17 06:58:16;;;;;;;6.87;6.27;;;16.80;99.90;;;;;;4973387;28;20541;-64
2023/09/17 07:00:43;;;;;;;7.50;6.27;;;16.90;99.90;;;;;;4973618;28;20520;-65
2023/09/17 07:03:10;;;;;;;7.03;6.37;;;17.00;99.90;;;;;;4973070;28;21020;-64
2023/09/17 07:05:37;;;;;;;6.57;6.07;;;17.00;99.90;;;;;;4973330;28;20456;-64
2023/09/17 07:08:04;;;;;;;6.00;5.40;;;17.10;99.90;;;;;;4973391;28;20969;-64
2023/09/17 07:10:32;;;;;;;5.80;5.40;;;17.20;99.90;;;;;;4973339;28;20998;-64
2023/09/17 07:13:00;;;;;;;8.73;6.97;;;17.30;99.90;;;;;;4972939;28;20538;-65
2023/09/17 07:15:27;;;;;;;6.00;5.47;;;17.50;99.90;;;;;;4972909;28;20945;-65
2023/09/17 07:17:54;;;;;;;6.10;5.60;;;17.70;99.90;;;;;;4972691;28;20557;-65
2023/09/17 07:20:21;;;;;;;9.20;5.67;;;17.80;99.90;;;;;;4973063;28;20458;-65
2023/09/17 07:22:49;;;;;;;8.23;6.70;;;18.00;99.90;;;;;;4972684;28;20474;-65
2023/09/17 07:25:16;;;;;;;6.40;5.90;;;18.20;99.90;;;;;;4971648;28;20460;-63
2023/09/17 07:27:43;;;;;;;7.10;6.50;;;18.30;99.90;;;;;;4972161;28;20483;-64
2023/09/17 07:30:12;;;;;;;6.60;6.13;;;18.50;99.90;;;;;;4972712;28;20455;-63
2023/09/17 07:32:39;;;;;;;8.83;7.03;;;18.60;99.90;;;;;;4971931;28;20455;-63
2023/09/17 07:35:08;;;;;;;6.53;6.00;;;18.70;99.90;;;;;;4972536;28;20540;-63
2023/09/17 07:37:35;;;;;;;7.57;6.77;;;18.90;99.90;;;;;;4972262;28;20530;-63
2023/09/17 07:40:06;;;;;;;7.27;6.57;;;19.00;99.90;;;;;;4971737;28;20455;-63
2023/09/17 07:42:33;;;;;;;7.13;6.50;;;19.20;99.90;;;;;;4971820;28;20448;-63
2023/09/17 07:45:00;;;;;;;7.30;6.70;;;19.30;99.90;;;;;;4972247;28;20532;-64
2023/09/17 07:47:28;;;;;;;6.50;6.00;;;19.40;99.90;;;;;;4971952;28;20493;-63
2023/09/17 07:49:55;;;;;;;7.37;6.77;;;19.60;99.90;;;;;;4972382;28;20797;-64
2023/09/17 07:52:21;;;;;;;6.93;6.37;;;19.70;99.90;;;;;;4971550;28;20451;-64
2023/09/17 07:54:48;;;;;;;6.20;5.80;;;19.90;99.90;;;;;;4972186;28;20448;-64
2023/09/17 07:57:15;;;;;;;6.77;6.27;;;20.00;99.90;;;;;;4971898;28;21045;-63
2023/09/17 07:59:42;;;;;;;7.97;7.37;;;20.10;99.90;;;;;;4971949;28;20537;-64
2023/09/17 08:02:09;;;;;;;7.78;7.03;;;20.20;99.90;;;;;;4971445;28;20533;-64
2023/09/17 08:04:37;;;;;;;7.53;6.93;;;20.30;99.90;;;;;;4971690;28;20563;-64
2023/09/17 08:07:04;;;;;;;7.07;6.40;;;20.50;99.90;;;;;;4971709;28;21098;-64
2023/09/17 08:09:31;;;;;;;7.33;6.83;;;20.60;99.90;;;;;;4971888;28;20456;-64
2023/09/17 08:11:59;;;;;;;6.70;6.20;;;20.70;99.90;;;;;;4972059;28;20456;-63
2023/09/17 08:14:26;;;;;;;7.03;6.53;;;20.80;99.90;;;;;;4971994;28;20531;-64
2023/09/17 08:16:53;;;;;;;7.40;6.70;;;21.00;99.90;;;;;;4972051;28;20466;-63
2023/09/17 08:19:20;;;;;;;7.30;6.70;;;21.00;99.90;;;;;;4971826;28;20473;-63
2023/09/17 08:21:48;;;;;;;7.57;6.97;;;21.10;99.90;;;;;;4971720;28;20530;-64
2023/09/17 08:24:17;;;;;;;7.40;6.80;;;21.20;99.90;;;;;;4971939;28;20446;-64
2023/09/17 08:26:44;;;;;;;7.90;7.10;;;21.30;99.90;;;;;;4971642;28;20489;-64
2023/09/17 08:29:11;;;;;;;7.50;7.00;;;21.40;99.90;;;;;;4974980;28;20831;-64
2023/09/17 08:31:38;;;;;;;7.77;7.17;;;21.50;99.90;;;;;;4975747;28;20449;-63
2023/09/17 08:34:04;;;;;;;7.67;7.10;;;21.60;99.90;;;;;;4975418;28;20474;-64
2023/09/17 08:36:32;;;;;;;6.23;5.83;;;21.70;99.90;;;;;;4975382;28;20995;-64
2023/09/17 08:39:01;;;;;;;9.13;7.30;;;21.80;99.90;;;;;;4975290;28;20538;-64
2023/09/17 08:41:28;;;;;;;7.40;6.90;;;21.90;99.90;;;;;;4975644;28;20508;-65
2023/09/17 08:43:56;;;;;;;7.70;7.00;;;22.00;99.90;;;;;;4973601;28;20482;-65
2023/09/17 08:46:23;;;;;;;6.90;6.50;;;22.10;99.90;;;;;;4974844;28;20594;-64
2023/09/17 08:48:49;;;;;;;8.00;7.30;;;22.20;99.90;;;;;;4974862;28;20891;-65
2023/09/17 08:51:19;;;;;;;7.40;6.80;;;22.30;99.90;;;;;;4975033;28;20458;-64
2023/09/17 08:53:54;;;;;;;7.40;6.90;;;22.40;99.90;;;;;;4974519;28;20870;-65
2023/09/17 08:56:22;;;;;;;8.47;7.70;;;22.50;99.90;;;;;;4975106;28;20475;-65
2023/09/17 08:58:55;;;;;;;7.20;6.70;;;22.50;99.90;;;;;;4975095;28;20542;-65
2023/09/17 09:01:25;;;;;;;8.57;7.87;;;22.70;99.90;;;;;;4974914;28;20482;-65
2023/09/17 09:03:54;;;;;;;7.80;7.10;;;22.80;99.90;;;;;;4974907;28;20455;-65
2023/09/17 09:06:21;;;;;;;7.67;7.07;;;22.80;99.90;;;;;;4974918;28;20507;-64
2023/09/17 09:08:49;;;;;;;8.80;8.00;;;23.00;99.90;;;;;;4974857;28;20452;-65
2023/09/17 09:11:17;;;;;;;7.80;7.30;;;23.20;99.90;;;;;;4974761;28;20543;-64
2023/09/17 09:13:50;;;;;;;6.60;6.10;;;23.40;99.90;;;;;;4974367;28;20885;-64
2023/09/17 09:16:17;;;;;;;7.23;6.53;;;23.50;99.90;;;;;;4974592;28;20983;-64
2023/09/17 09:18:44;;;;;;;8.07;7.50;;;23.70;99.90;;;;;;4987849;28;20525;-64
2023/09/17 09:21:14;;;;;;;7.93;7.27;;;23.80;99.90;;;;;;4993308;28;20831;-65
2023/09/17 09:23:41;;;;;;;8.70;8.10;;;23.90;99.90;;;;;;4993663;28;20455;-64
2023/09/17 09:26:08;;;;;;;7.10;6.57;;;24.10;99.90;;;;;;4993914;28;20554;-64
2023/09/17 09:28:35;;;;;;;6.90;6.40;;;24.20;99.90;;;;;;4994114;28;21059;-64
2023/09/17 09:31:04;;;;;;;7.60;6.90;;;24.30;99.90;;;;;;4994197;28;20452;-65
2023/09/17 09:33:31;;;;;;;6.50;6.03;;;24.40;99.90;;;;;;4993808;28;20861;-65
2023/09/17 09:36:00;;;;;;;6.77;6.20;;;24.50;99.90;;;;;;4993530;28;20535;-64
2023/09/17 09:38:27;;;;;;;6.73;6.33;;;24.60;99.90;;;;;;4993488;28;20514;-65
2023/09/17 09:40:55;;;;;;;6.83;6.33;;;24.70;99.90;;;;;;4992528;28;20448;-65
2023/09/17 09:43:30;;;;;;;6.27;5.77;;;24.70;99.90;;;;;;4993507;28;20938;-65
2023/09/17 09:46:04;;;;;;;6.67;6.27;;;24.80;99.90;;;;;;4993257;28;20447;-65
2023/09/17 09:48:31;;;;;;;6.37;5.97;;;24.90;99.90;;;;;;4993481;28;20488;-65
2023/09/17 09:50:59;;;;;;;7.03;6.63;;;25.00;99.90;;;;;;4993479;28;20486;-65
2023/09/17 09:53:26;;;;;;;6.83;6.33;;;25.10;99.90;;;;;;4982759;28;20462;-65
2023/09/17 09:55:53;;;;;;;6.57;6.17;;;25.20;99.90;;;;;;4973600;28;20544;-65
2023/09/17 09:58:20;;;;;;;7.07;6.57;;;25.20;99.90;;;;;;4973628;28;20536;-65
2023/09/17 10:00:47;;;;;;;7.70;7.10;;;25.30;99.90;;;;;;4973562;28;20448;-65
2023/09/17 10:03:19;;;;;;;6.43;6.03;;;25.40;99.90;;;;;;4973328;28;20836;-65
2023/09/17 10:05:46;;;;;;;7.30;6.70;;;25.60;99.90;;;;;;4973087;28;20464;-65
2023/09/17 10:08:17;;;;;;;6.87;6.47;;;25.70;99.90;;;;;;4971635;28;20498;-65
2023/09/17 10:10:44;;;;;;;6.43;5.87;;;25.80;99.90;;;;;;4973303;28;20509;-65
2023/09/17 10:13:12;;;;;;;6.90;6.40;;;25.90;99.90;;;;;;4972923;28;20806;-65
2023/09/17 10:15:41;;;;;;;6.03;5.63;;;26.00;99.90;;;;;;4972957;28;20871;-65
2023/09/17 10:18:12;;;;;;;6.27;5.87;;;26.20;99.90;;;;;;4972825;28;20443;-64
2023/09/17 10:20:42;;;;;;;7.50;6.30;;;26.20;99.90;;;;;;4973254;28;21039;-65
2023/09/17 10:23:11;;;;;;;7.03;6.53;;;26.30;99.90;;;;;;4972635;28;20452;-65
2023/09/17 10:25:40;;;;;;;6.23;5.67;;;26.50;99.90;;;;;;4972790;28;20458;-65
2023/09/17 10:28:07;;;;;;;6.20;5.80;;;26.70;99.90;;;;;;4972700;28;20574;-65
2023/09/17 10:30:35;;;;;;;5.63;5.23;;;26.70;98.40;;;;;;4972698;28;20992;-65
2023/09/17 10:33:07;;;;;;;6.87;6.27;;;26.80;97.80;;;;;;4970943;28;20560;-65
2023/09/17 10:35:36;;;;;;;5.63;5.23;;;26.90;98.00;;;;;;4959168;28;20967;-66
2023/09/17 10:38:06;;;;;;;6.07;5.47;;;27.00;97.30;;;;;;4973323;28;20469;-65
2023/09/17 10:40:35;;;;;;;6.43;5.93;;;27.00;96.90;;;;;;4973232;28;20458;-66
2023/09/17 10:43:04;;;;;;;5.73;5.43;;;27.10;97.00;;;;;;4972570;28;21303;-65
2023/09/17 10:45:35;;;;;;;6.40;6.00;;;27.30;97.50;;;;;;4972760;28;20454;-66
2023/09/17 10:48:03;;;;;;;5.90;5.30;;;27.30;97.00;;;;;;4972476;28;21047;-66
2023/09/17 10:50:34;;;;;;;6.60;6.00;;;27.40;96.50;;;;;;4972388;28;20466;-66
2023/09/17 10:53:01;;;;;;;6.23;5.73;;;27.50;95.40;;;;;;4971733;28;20481;-66
2023/09/17 10:55:34;;;;;;;5.93;5.53;;;27.50;95.50;;;;;;4972074;28;20478;-65
2023/09/17 10:58:07;;;;;;;6.20;5.60;;;27.70;95.40;;;;;;4972147;28;20471;-63
2023/09/17 11:00:35;;;;;;;5.47;5.03;;;27.70;94.20;;;;;;4972281;28;20528;-63
2023/09/17 11:03:04;;;;;;;5.23;4.93;;;27.80;94.20;;;;;;4971991;28;20454;-63
2023/09/17 11:05:32;;;;;;;5.53;4.87;;;27.90;94.20;;;;;;4972653;28;20457;-63
2023/09/17 11:08:03;;;;;;;5.93;4.87;;;28.00;95.20;;;;;;4973814;28;20589;-63
2023/09/17 11:10:32;;;;;;;5.00;4.70;;;28.10;95.10;;;;;;4977483;28;20451;-64
2023/09/17 11:12:59;;;;;;;5.20;4.90;;;28.20;94.20;;;;;;4972194;28;20481;-64
2023/09/17 11:15:26;;;;;;;4.93;4.60;;;28.40;93.20;;;;;;4972259;28;20537;-65
2023/09/17 11:17:59;;;;;;;5.37;4.60;;;28.40;94.10;;;;;;4972156;28;20477;-65
2023/09/17 11:20:26;;;;;;;4.97;4.57;;;28.50;93.50;;;;;;4972213;28;20457;-65
2023/09/17 11:22:53;;;;;;;4.63;4.13;;;28.70;93.10;;;;;;4970821;28;20448;-66
2023/09/17 11:25:35;;;;;;;5.17;4.63;;;28.70;92.40;;;;;;4972393;28;20522;-66
2023/09/17 11:28:10;;;;;;;6.00;5.43;;;28.80;92.40;;;;;;4972209;28;21020;-66
2023/09/17 11:30:58;;;;;;;5.03;4.53;;;28.80;92.70;;;;;;4972046;28;20474;-66
2023/09/17 11:33:27;;;;;;;3.63;3.43;;;28.90;93.10;;;;;;4956718;28;20454;-66
2023/09/17 11:35:54;;;;;;;4.60;4.20;;;29.00;91.80;;;;;;4972174;28;20448;-66
2023/09/17 11:38:24;;;;;;;5.40;3.93;;;29.10;91.60;;;;;;4971953;28;20440;-66
2023/09/17 11:41:08;;;;;;;4.30;3.67;;;29.00;90.40;;;;;;4972149;28;20440;-66
2023/09/17 11:43:36;;;;;;;6.57;4.47;;;29.10;90.70;;;;;;4957845;28;20526;-66
2023/09/17 11:46:05;;;;;;;3.83;3.40;;;29.10;90.00;;;;;;4971841;28;20471;-66
2023/09/17 11:48:33;;;;;;;5.03;3.50;;;29.10;88.20;;;;;;4971564;28;20494;-65
2023/09/17 11:51:24;;;;;;;4.00;3.70;;;29.30;89.80;;;;;;4971812;28;20445;-66
2023/09/17 11:53:52;;;;;;;5.80;3.40;;;29.50;87.30;;;;;;4971536;28;20475;-66
2023/09/17 11:56:20;;;;;;;4.40;3.97;;;29.50;88.80;;;;;;4971601;28;20464;-66
2023/09/17 11:58:56;;;;;;;3.70;3.40;;;29.50;88.00;;;;;;4970083;28;20447;-66
2023/09/17 12:01:24;;;;;;;4.57;4.17;;;29.60;85.50;;;;;;4965840;28;20523;-66
2023/09/17 12:03:53;;;;;;;4.90;3.93;;;29.60;85.80;;;;;;4969973;28;20531;-66
2023/09/17 12:06:21;;;;;;;4.73;4.20;;;29.60;87.40;;;;;;4971189;28;21268;-65
2023/09/17 12:08:49;;;;;;;4.20;3.70;;;29.70;86.70;;;;;;4971283;28;20480;-66
2023/09/17 12:11:21;;;;;;;3.53;3.33;;;29.80;87.60;;;;;;4971659;28;20525;-66
2023/09/17 12:13:53;;;;;;;6.40;4.77;;;30.00;87.10;;;;;;4970974;28;20452;-66
2023/09/17 12:16:23;;;;;;;4.50;4.10;;;30.00;85.90;;;;;;4970354;28;20468;-66
2023/09/17 12:18:51;;;;;;;4.90;3.77;;;30.10;84.90;;;;;;4968240;28;20451;-66
2023/09/17 12:21:17;;;;;;;6.23;4.30;;;30.20;85.70;;;;;;4967066;28;20445;-66
2023/09/17 12:23:54;;;;;;;4.13;3.73;;;30.20;85.90;;;;;;4973921;28;20454;-66
2023/09/17 12:26:25;;;;;;;3.80;3.50;;;30.20;83.00;;;;;;4963974;28;20505;-66
2023/09/17 12:28:54;;;;;;;3.60;3.30;;;30.20;86.70;;;;;;4969221;28;20492;-65
2023/09/17 12:31:20;;;;;;;6.00;4.07;;;30.20;85.10;;;;;;4968305;28;20530;-66
2023/09/17 12:33:47;;;;;;;5.43;4.03;;;30.30;83.50;;;;;;4969479;28;20469;-66
2023/09/17 12:36:14;;;;;;;4.00;3.70;;;30.40;84.70;;;;;;4969957;28;20534;-65
2023/09/17 12:38:41;;;;;;;3.40;3.20;;;30.50;81.50;;;;;;4969995;28;20444;-65
2023/09/17 12:41:11;;;;;;;3.20;2.90;;;30.50;80.40;;;;;;4969572;28;20458;-66
2023/09/17 12:43:37;;;;;;;3.40;3.10;;;30.50;79.70;;;;;;4961856;28;21195;-66
2023/09/17 12:46:06;;;;;;;4.43;4.00;;;30.50;79.00;;;;;;4969704;28;20924;-66
2023/09/17 12:48:34;;;;;;;4.50;3.20;;;30.60;81.70;;;;;;4969650;28;20538;-65
2023/09/17 12:51:01;;;;;;;4.07;3.30;;;30.60;79.70;;;;;;4969726;28;20451;-65